This is the latest recevied weather packets stored in our database for station/object AE6BH. If no packets are shown the sender has not sent any weather packets the latest 10 day(s).
| Time | Temp. | Humidity | Pressure | Rain* | Wind** | Luminosity | Snow |
|---|---|---|---|---|---|---|---|
| 1777490099 | 22.78° C | 44% | 1016.2 hPa | 0 mm | - | 747 W/m² | - |
| 1777489796 | 23.89° C | 43% | 1016.3 hPa | 0 mm | - | 766 W/m² | - |
| 1777489494 | 22.78° C | 44% | 1016.2 hPa | 0 mm | - | 772 W/m² | - |
| 1777489190 | 23.89° C | 42% | 1015.9 hPa | 0 mm | - | 752 W/m² | - |
| 1777488888 | 23.33° C | 42% | 1016 hPa | 0 mm | - | 741 W/m² | - |
| 1777488584 | 22.78° C | 43% | 1016.1 hPa | 0 mm | - | 749 W/m² | - |
| 1777488282 | 23.33° C | 42% | 1016.1 hPa | 0 mm | - | 750 W/m² | - |
| 1777487981 | 23.33° C | 43% | 1016.4 hPa | 0 mm | - | 723 W/m² | - |
| 1777487678 | 22.78° C | 42% | 1016.3 hPa | 0 mm | - | 700 W/m² | - |
| 1777487375 | 23.33° C | 39% | 1016.5 hPa | 0 mm | - | 736 W/m² | - |
| 1777487073 | 22.78° C | 40% | 1016.4 hPa | 0 mm | - | 746 W/m² | - |
| 1777486768 | 22.78° C | 40% | 1016.7 hPa | 0 mm | - | 751 W/m² | - |
| 1777486466 | 22.78° C | 41% | 1016.6 hPa | 0 mm | - | 764 W/m² | - |
| 1777486163 | 22.22° C | 41% | 1016.6 hPa | 0 mm | - | 747 W/m² | - |
| 1777485861 | 22.22° C | 42% | 1016.7 hPa | 0 mm | - | 727 W/m² | - |
| 1777485561 | 22.78° C | 40% | 1016.5 hPa | 0 mm | - | 726 W/m² | - |
| 1777485257 | 21.67° C | 43% | 1016.7 hPa | 0 mm | - | 763 W/m² | - |
| 1777484954 | 21.11° C | 43% | 1016.7 hPa | 0 mm | - | 792 W/m² | - |
| 1777484651 | 21.67° C | 42% | 1016.8 hPa | 0 mm | - | 786 W/m² | - |
| 1777484347 | 22.22° C | 41% | 1016.9 hPa | 0 mm | - | 795 W/m² | - |
| 1777484043 | 21.67° C | 41% | 1017 hPa | 0 mm | - | 825 W/m² | - |
| 1777483740 | 21.67° C | 42% | 1016.9 hPa | 0 mm | - | 818 W/m² | - |
| 1777483436 | 21.67° C | 44% | 1017.1 hPa | 0 mm | - | 788 W/m² | - |
| 1777483131 | 21.11° C | 44% | 1016.9 hPa | 0 mm | - | 741 W/m² | - |
| 1777482828 | 20.56° C | 44% | 1017.1 hPa | 0 mm | - | 721 W/m² | - |
* Rain latest hour (hover to see other rain measurements)
** Current wind speed in m/s (hover to see current wind gust speed)